Disclaimer

Please do not use the information listed here in-flight or in-navigation, as they are not provided to us by the airports but are provided by volunteers, so they might be outdated.

Search


Regions


Airport information page

Radio informations:
KRUG - 126.1 MHz
ULYANOVSK APP - 127.3 MHz

Airport informations:
Latitude: 54° 24' 03.66" N
Longitude: 048° 48' 09.56" E
Elevation: 252 feet - 77 meters
Operating hours: 24 hour operations
Operating agency: Civil government, landing fees and diplomatic clearance may be required
Timezone: UTC+3(+4DT) - Last Sunday in March to last Sunday in October
Fuel: N/A

Runway information:
02/20 - 16405 x 344 feet< - >5000 x 105 meters

Recent METARs:
UWLW 201600Z 29002MPS 8000 OVC024 M01/M04 Q1020 R20/350145 NOSIG RMK QFE759
UWLW 201700Z 28002MPS 8000 OVC020 M01/M04 Q1019 R20/350145 NOSIG RMK QFE759
UWLW 201700Z 28002MPS 8000 OVC020 M01/M04 Q1019 R20/350145 NOSIG RMK QFE759

Airport on the map: